createdAt,value
2019-02-17T00:01:39.104Z,3.65
2019-02-17T00:04:41.028Z,3.66
2019-02-17T00:07:42.979Z,3.69
2019-02-17T00:10:44.910Z,3.75
2019-02-17T00:13:46.883Z,3.80
2019-02-17T00:16:48.785Z,3.81
2019-02-17T00:19:50.733Z,3.81
2019-02-17T00:22:52.709Z,3.78
2019-02-17T00:25:54.687Z,3.78
2019-02-17T00:28:59.338Z,3.78
2019-02-17T00:32:00.505Z,3.76
2019-02-17T00:35:02.559Z,3.76
2019-02-17T00:38:04.517Z,3.72
2019-02-17T00:41:06.597Z,3.66
2019-02-17T00:44:08.557Z,3.63
2019-02-17T00:47:10.498Z,3.56
2019-02-17T00:50:12.429Z,3.55
2019-02-17T00:53:14.343Z,3.54
2019-02-17T00:56:16.352Z,3.60
2019-02-17T00:59:18.752Z,3.67
2019-02-17T01:02:20.735Z,3.73
2019-02-17T01:05:22.723Z,3.75
2019-02-17T01:08:24.674Z,3.81
2019-02-17T01:11:26.582Z,3.82
2019-02-17T01:14:28.564Z,3.79
2019-02-17T01:17:30.526Z,3.75
2019-02-17T01:20:32.521Z,3.70
2019-02-17T01:23:34.514Z,3.67
2019-02-17T01:26:36.475Z,3.61
2019-02-17T01:29:38.428Z,3.57
2019-02-17T01:32:40.454Z,3.55
2019-02-17T01:35:42.391Z,3.58
2019-02-17T01:38:44.391Z,3.59
2019-02-17T01:41:46.396Z,3.58
2019-02-17T01:44:48.359Z,3.61
2019-02-17T01:47:50.316Z,3.65
2019-02-17T01:50:52.331Z,3.70
2019-02-17T01:53:54.394Z,3.67
2019-02-17T01:56:56.353Z,3.67
2019-02-17T01:59:58.338Z,3.64
2019-02-17T02:03:00.439Z,3.59
2019-02-17T02:06:02.454Z,3.54
2019-02-17T02:09:07.865Z,3.48
2019-02-17T02:12:09.798Z,3.42
2019-02-17T02:15:11.945Z,3.40
2019-02-17T02:18:14.235Z,3.33
2019-02-17T02:21:16.103Z,3.15
2019-02-17T02:24:18.072Z,3.05
2019-02-17T02:27:20.192Z,3.01
2019-02-17T02:30:22.152Z,2.96
2019-02-17T02:33:23.997Z,2.96
2019-02-17T02:36:25.949Z,2.95
2019-02-17T02:39:27.825Z,2.96
2019-02-17T02:42:29.749Z,2.97
2019-02-17T02:45:31.641Z,2.97
2019-02-17T02:48:33.545Z,2.93
2019-02-17T02:51:36.793Z,2.90
2019-02-17T02:54:38.831Z,2.88
2019-02-17T02:57:40.909Z,2.88
2019-02-17T03:00:42.910Z,2.87
2019-02-17T03:03:46.083Z,2.89
2019-02-17T03:06:53.137Z,2.88
2019-02-17T03:09:55.016Z,2.85
2019-02-17T03:12:56.975Z,2.79
2019-02-17T03:15:58.815Z,2.74
2019-02-17T03:19:00.814Z,2.67
2019-02-17T03:22:02.782Z,2.67
2019-02-17T03:25:05.713Z,2.68
2019-02-17T03:28:07.748Z,2.65
2019-02-17T03:31:09.785Z,2.62
2019-02-17T03:34:11.830Z,2.57
2019-02-17T03:37:13.790Z,2.50
2019-02-17T03:40:15.689Z,2.44
2019-02-17T03:43:17.663Z,2.43
2019-02-17T03:46:19.614Z,2.42
2019-02-17T03:49:21.559Z,2.44
2019-02-17T03:52:23.443Z,2.43
2019-02-17T03:55:25.382Z,2.45
2019-02-17T03:58:27.357Z,2.50
2019-02-17T04:01:29.291Z,2.50
2019-02-17T04:04:31.359Z,2.50
2019-02-17T04:07:33.294Z,2.50
2019-02-17T04:10:35.263Z,2.42
2019-02-17T04:13:38.508Z,2.42
2019-02-17T04:16:40.477Z,2.39
2019-02-17T04:19:42.422Z,2.36
2019-02-17T04:22:44.363Z,2.34
2019-02-17T04:25:46.321Z,2.30
2019-02-17T04:28:48.314Z,2.27
2019-02-17T04:31:50.383Z,2.21
2019-02-17T04:34:52.322Z,2.22
2019-02-17T04:37:54.215Z,2.19
2019-02-17T04:40:56.186Z,2.19
2019-02-17T04:43:58.178Z,2.12
2019-02-17T04:47:00.060Z,2.07
2019-02-17T04:50:01.982Z,2.08
2019-02-17T04:53:03.948Z,2.06
2019-02-17T04:56:05.921Z,2.11
2019-02-17T04:59:07.913Z,2.09
2019-02-17T05:02:09.789Z,2.02
2019-02-17T05:05:11.838Z,1.98
2019-02-17T05:08:13.728Z,1.92
2019-02-17T05:11:15.679Z,1.84
2019-02-17T05:14:17.631Z,1.77
2019-02-17T05:17:20.300Z,1.73
2019-02-17T05:20:22.497Z,1.68
2019-02-17T05:23:24.512Z,1.66
2019-02-17T05:26:26.508Z,1.63
2019-02-17T05:29:28.508Z,1.65
2019-02-17T05:32:31.512Z,1.65
2019-02-17T05:35:33.439Z,1.64
2019-02-17T05:38:35.422Z,1.66
2019-02-17T05:41:38.347Z,1.72
2019-02-17T05:44:40.356Z,1.74
2019-02-17T05:47:42.292Z,1.78
2019-02-17T05:50:44.304Z,1.84
2019-02-17T05:53:46.332Z,1.91
2019-02-17T05:56:48.236Z,1.91
2019-02-17T05:59:50.243Z,1.91
2019-02-17T06:02:52.239Z,1.87
2019-02-17T06:05:54.203Z,1.85
2019-02-17T06:08:56.178Z,1.88
2019-02-17T06:11:58.103Z,2.01
2019-02-17T06:15:00.231Z,2.20
2019-02-17T06:18:02.341Z,2.57
2019-02-17T06:21:04.314Z,3.05
2019-02-17T06:24:06.213Z,3.49
2019-02-17T06:27:08.192Z,3.86
2019-02-17T06:30:10.151Z,4.01
2019-02-17T06:33:12.102Z,4.17
2019-02-17T06:36:14.282Z,4.47
2019-02-17T06:39:16.221Z,4.81
2019-02-17T06:42:18.153Z,4.97
2019-02-17T06:45:20.075Z,5.14
2019-02-17T06:48:21.975Z,5.41
2019-02-17T06:51:23.900Z,5.75
2019-02-17T06:54:25.770Z,6.46
2019-02-17T06:57:29.507Z,7.34
2019-02-17T07:00:39.168Z,8.04
2019-02-17T07:03:41.145Z,8.61
2019-02-17T07:06:45.125Z,9.45
2019-02-17T07:09:47.141Z,10.71
2019-02-17T07:12:49.013Z,11.92
2019-02-17T07:15:51.071Z,13.14
2019-02-17T07:18:52.942Z,13.61
2019-02-17T07:21:54.913Z,13.89
2019-02-17T07:24:57.119Z,14.22
2019-02-17T07:27:59.079Z,15.24
2019-02-17T07:31:01.048Z,16.16
2019-02-17T07:34:03.012Z,16.68
2019-02-17T07:37:05.941Z,17.33
2019-02-17T07:40:08.149Z,17.76
2019-02-17T07:43:11.963Z,18.08
2019-02-17T07:46:13.920Z,18.36
2019-02-17T07:49:15.773Z,18.45
2019-02-17T07:52:17.720Z,18.65
2019-02-17T07:55:19.634Z,18.73
2019-02-17T07:58:21.558Z,19.17
2019-02-17T08:01:23.579Z,19.51
2019-02-17T08:04:25.481Z,20.07
2019-02-17T08:07:27.527Z,20.60
2019-02-17T08:10:29.398Z,21.23
2019-02-17T08:13:31.685Z,21.77
2019-02-17T08:16:33.560Z,22.01
2019-02-17T08:19:35.537Z,22.40
2019-02-17T08:22:37.428Z,22.77
2019-02-17T08:25:39.383Z,23.13
2019-02-17T08:28:42.683Z,23.32
2019-02-17T08:31:54.943Z,23.30
2019-02-17T08:34:49.122Z,23.44
2019-02-17T08:37:51.088Z,23.39
2019-02-17T08:40:53.121Z,23.03
2019-02-17T08:43:55.210Z,22.85
2019-02-17T08:46:57.087Z,22.60
2019-02-17T08:49:59.040Z,22.31
2019-02-17T08:53:00.916Z,22.12
2019-02-17T08:56:02.897Z,21.86
2019-02-17T08:59:04.787Z,21.14
2019-02-17T09:02:06.860Z,19.91
2019-02-17T09:05:08.770Z,18.64
2019-02-17T09:08:10.811Z,17.54
2019-02-17T09:11:12.739Z,16.75
2019-02-17T09:14:14.749Z,16.16
2019-02-17T09:17:16.680Z,15.73
2019-02-17T09:20:18.711Z,15.35
2019-02-17T09:23:20.646Z,15.27
2019-02-17T09:26:22.628Z,15.06
2019-02-17T09:29:24.603Z,15.02
2019-02-17T09:32:26.641Z,14.90
2019-02-17T09:35:28.602Z,14.83
2019-02-17T09:38:30.565Z,14.80
2019-02-17T09:41:32.479Z,14.82
2019-02-17T09:44:34.470Z,14.81
2019-02-17T09:47:36.343Z,14.81
2019-02-17T09:50:38.260Z,14.79
2019-02-17T09:53:40.215Z,14.78
2019-02-17T09:56:42.244Z,14.81
2019-02-17T09:59:44.173Z,14.84
2019-02-17T10:02:46.231Z,14.93
2019-02-17T10:05:48.127Z,14.98
2019-02-17T10:08:50.186Z,15.02
2019-02-17T10:11:52.120Z,14.99
2019-02-17T10:14:54.086Z,15.06
2019-02-17T10:17:56.382Z,15.12
2019-02-17T10:20:58.309Z,15.04
2019-02-17T10:24:00.195Z,15.10
2019-02-17T10:27:02.151Z,15.15
2019-02-17T10:30:18.287Z,15.22
2019-02-17T10:33:21.342Z,15.33
2019-02-17T10:36:23.290Z,15.25
2019-02-17T10:39:25.240Z,15.32
2019-02-17T10:42:27.156Z,15.39
2019-02-17T10:45:29.123Z,15.35
2019-02-17T10:48:31.197Z,15.38
2019-02-17T10:51:33.179Z,15.48
2019-02-17T10:54:35.123Z,15.45
2019-02-17T10:57:37.122Z,15.42
2019-02-17T11:00:39.093Z,15.41
2019-02-17T11:03:44.811Z,15.43
2019-02-17T11:06:46.842Z,15.42
2019-02-17T11:09:48.989Z,15.42
2019-02-17T11:12:50.934Z,15.45
2019-02-17T11:15:52.871Z,15.59
2019-02-17T11:18:54.888Z,15.63
2019-02-17T11:21:56.859Z,15.65
2019-02-17T11:24:58.818Z,15.67
2019-02-17T11:28:00.751Z,15.72
2019-02-17T11:31:03.239Z,15.79
2019-02-17T11:34:05.270Z,15.80
2019-02-17T11:37:07.311Z,15.74
2019-02-17T11:40:11.255Z,15.80
2019-02-17T11:43:13.159Z,15.80
2019-02-17T11:46:15.161Z,15.79
2019-02-17T11:49:17.059Z,15.83
2019-02-17T11:52:19.089Z,15.88
2019-02-17T11:55:22.751Z,15.87
2019-02-17T11:58:25.053Z,15.85
2019-02-17T12:01:26.995Z,15.83
2019-02-17T12:04:29.016Z,15.85
2019-02-17T12:07:30.931Z,15.87
2019-02-17T12:10:32.930Z,15.86
2019-02-17T12:13:34.870Z,15.92
2019-02-17T12:16:37.406Z,15.91
2019-02-17T12:19:39.558Z,15.95
2019-02-17T12:22:42.807Z,15.93
2019-02-17T12:26:01.693Z,16.00
2019-02-17T12:29:05.681Z,15.98
2019-02-17T12:32:09.493Z,15.96
2019-02-17T12:35:11.490Z,16.01
2019-02-17T12:38:13.463Z,16.02
2019-02-17T12:41:15.604Z,16.10
2019-02-17T12:44:17.562Z,16.09
2019-02-17T12:47:19.586Z,16.09
2019-02-17T12:50:21.579Z,16.00
2019-02-17T12:53:23.633Z,15.94
2019-02-17T12:56:25.658Z,16.00
2019-02-17T12:59:27.769Z,16.03
2019-02-17T13:02:29.703Z,16.05
2019-02-17T13:05:31.737Z,16.11
2019-02-17T13:08:33.713Z,16.13
2019-02-17T13:11:35.799Z,16.08
2019-02-17T13:14:37.729Z,16.13
2019-02-17T13:17:39.866Z,16.14
2019-02-17T13:20:41.852Z,16.18
2019-02-17T13:23:43.827Z,16.14
2019-02-17T13:26:45.805Z,16.15
2019-02-17T13:29:47.755Z,16.12
2019-02-17T13:32:49.767Z,16.14
2019-02-17T13:35:51.835Z,16.07
2019-02-17T13:38:53.799Z,16.10
2019-02-17T13:41:55.825Z,16.13
2019-02-17T13:44:57.951Z,16.10
2019-02-17T13:48:00.124Z,16.09
2019-02-17T13:51:02.021Z,16.13
2019-02-17T13:54:03.953Z,16.14
2019-02-17T13:57:06.004Z,16.15
2019-02-17T14:00:17.547Z,16.13
2019-02-17T14:03:19.530Z,16.11
2019-02-17T14:06:21.548Z,16.03
2019-02-17T14:09:23.644Z,16.03
2019-02-17T14:12:25.814Z,16.06
2019-02-17T14:15:27.804Z,16.04
2019-02-17T14:18:29.798Z,16.01
2019-02-17T14:21:31.768Z,16.01
2019-02-17T14:24:33.716Z,16.00
2019-02-17T14:27:36.281Z,16.03
2019-02-17T14:30:38.277Z,15.98
2019-02-17T14:33:40.203Z,15.93
2019-02-17T14:36:42.262Z,15.91
2019-02-17T14:39:44.201Z,15.90
2019-02-17T14:42:46.583Z,15.84
2019-02-17T14:45:48.517Z,15.89
2019-02-17T14:48:50.721Z,15.85
2019-02-17T14:51:52.807Z,15.81
2019-02-17T14:54:54.825Z,15.74
2019-02-17T14:58:05.006Z,15.65
2019-02-17T15:01:00.742Z,15.51
2019-02-17T15:04:08.797Z,15.44
2019-02-17T15:07:06.603Z,15.40
2019-02-17T15:10:13.196Z,15.37
2019-02-17T15:13:15.476Z,15.36
2019-02-17T15:16:17.450Z,15.31
2019-02-17T15:19:19.514Z,15.30
2019-02-17T15:22:22.675Z,15.29
2019-02-17T15:25:24.702Z,15.22
2019-02-17T15:28:26.797Z,15.14
2019-02-17T15:31:30.885Z,15.11
2019-02-17T15:34:35.335Z,15.07
2019-02-17T15:37:37.142Z,15.02
2019-02-17T15:40:39.104Z,14.91
2019-02-17T15:43:41.359Z,14.80
2019-02-17T15:46:43.291Z,14.68
2019-02-17T15:49:45.307Z,14.53
2019-02-17T15:52:47.728Z,14.39
2019-02-17T15:55:49.740Z,14.30
2019-02-17T15:58:51.648Z,13.90
2019-02-17T16:01:53.676Z,13.84
2019-02-17T16:04:57.168Z,13.72
2019-02-17T16:07:59.264Z,13.45
2019-02-17T16:11:01.289Z,13.30
2019-02-17T16:14:03.368Z,13.03
2019-02-17T16:17:05.303Z,12.98
2019-02-17T16:20:10.322Z,12.91
2019-02-17T16:23:12.225Z,12.53
2019-02-17T16:26:14.332Z,12.41
2019-02-17T16:29:16.963Z,12.53
2019-02-17T16:32:18.929Z,12.38
2019-02-17T16:35:20.843Z,12.30
2019-02-17T16:38:24.852Z,12.06
2019-02-17T16:41:26.807Z,11.77
2019-02-17T16:44:29.559Z,11.70
2019-02-17T16:47:31.670Z,11.81
2019-02-17T16:50:33.726Z,11.95
2019-02-17T16:53:35.701Z,11.92
2019-02-17T16:56:37.731Z,11.88
2019-02-17T16:59:39.698Z,11.71
2019-02-17T17:02:41.609Z,11.47
2019-02-17T17:05:47.202Z,11.25
2019-02-17T17:08:49.215Z,11.15
2019-02-17T17:11:54.126Z,11.09
2019-02-17T17:14:56.617Z,10.94
2019-02-17T17:17:58.502Z,10.91
2019-02-17T17:21:00.969Z,10.79
2019-02-17T17:24:04.675Z,10.73
2019-02-17T17:27:09.039Z,10.73
2019-02-17T17:30:14.884Z,10.78
2019-02-17T17:33:19.566Z,10.81
2019-02-17T17:36:21.515Z,10.66
2019-02-17T17:39:23.572Z,10.61
2019-02-17T17:42:26.638Z,10.53
2019-02-17T17:45:30.665Z,10.47
2019-02-17T17:48:38.524Z,10.54
2019-02-17T17:51:40.783Z,10.57
2019-02-17T17:54:43.857Z,10.50
2019-02-17T17:57:46.213Z,10.47
2019-02-17T18:00:51.084Z,10.54
2019-02-17T18:03:53.083Z,10.51
2019-02-17T18:06:57.178Z,10.47
2019-02-17T18:10:01.523Z,10.47
2019-02-17T18:13:07.822Z,10.47
2019-02-17T18:16:12.523Z,10.38
2019-02-17T18:19:15.782Z,10.25
2019-02-17T18:22:20.083Z,10.16
2019-02-17T18:25:23.182Z,10.10
2019-02-17T18:28:26.894Z,10.08
2019-02-17T18:31:29.674Z,9.85
2019-02-17T18:34:32.056Z,9.68
2019-02-17T18:37:37.264Z,9.59
2019-02-17T18:40:44.983Z,9.54
2019-02-17T18:43:43.434Z,9.60
2019-02-17T18:46:45.393Z,9.65
2019-02-17T18:49:47.595Z,9.73
2019-02-17T18:52:51.200Z,9.79
2019-02-17T18:55:53.611Z,9.74
2019-02-17T18:58:55.524Z,9.69
2019-02-17T19:01:57.832Z,9.77
2019-02-17T19:05:01.824Z,9.68
2019-02-17T19:08:07.415Z,9.61
2019-02-17T19:11:09.320Z,9.46
2019-02-17T19:14:13.305Z,9.16
2019-02-17T19:17:15.944Z,9.05
2019-02-17T19:20:36.680Z,9.03
2019-02-17T19:23:38.623Z,9.02
2019-02-17T19:26:40.508Z,8.98
2019-02-17T19:29:43.429Z,8.98
2019-02-17T19:32:48.747Z,8.88
2019-02-17T19:35:50.626Z,8.86
2019-02-17T19:38:54.135Z,8.80
2019-02-17T19:41:56.021Z,8.82
2019-02-17T19:44:58.859Z,8.89
2019-02-17T19:48:01.144Z,8.92
2019-02-17T19:51:03.619Z,8.85
2019-02-17T19:54:06.121Z,8.83
2019-02-17T19:57:10.524Z,8.81
2019-02-17T20:00:14.224Z,8.74
2019-02-17T20:03:27.696Z,8.62
2019-02-17T20:06:29.580Z,8.56
2019-02-17T20:09:32.755Z,8.50
2019-02-17T20:12:34.693Z,8.41
2019-02-17T20:15:36.697Z,8.29
2019-02-17T20:18:43.567Z,8.19
2019-02-17T20:21:45.510Z,8.13
2019-02-17T20:24:47.444Z,8.04
2019-02-17T20:27:51.000Z,8.02
2019-02-17T20:30:52.968Z,8.00
2019-02-17T20:33:54.903Z,7.97
2019-02-17T20:36:57.227Z,7.85
2019-02-17T20:39:59.283Z,7.78
2019-02-17T20:43:01.495Z,7.59
2019-02-17T20:46:03.854Z,7.49
2019-02-17T20:49:07.467Z,7.41
2019-02-17T20:52:11.549Z,7.25
2019-02-17T20:55:13.762Z,6.94
2019-02-17T20:58:16.112Z,6.93
2019-02-17T21:01:18.065Z,6.91
2019-02-17T21:04:22.202Z,6.91
2019-02-17T21:07:24.108Z,6.87
2019-02-17T21:10:26.123Z,6.68
2019-02-17T21:13:29.840Z,6.78
2019-02-17T21:16:32.637Z,6.91
2019-02-17T21:19:36.474Z,6.94
2019-02-17T21:22:39.953Z,6.81
2019-02-17T21:25:41.908Z,6.64
2019-02-17T21:28:43.864Z,6.49
2019-02-17T21:31:45.765Z,6.46
2019-02-17T21:34:48.043Z,6.50
2019-02-17T21:37:49.941Z,6.53
2019-02-17T21:40:52.935Z,6.53
2019-02-17T21:43:54.844Z,6.53
2019-02-17T21:46:56.799Z,6.49
2019-02-17T21:49:58.702Z,6.45
2019-02-17T21:53:00.746Z,6.37
2019-02-17T21:56:02.751Z,6.36
2019-02-17T21:59:04.687Z,6.30
2019-02-17T22:02:06.573Z,6.21
2019-02-17T22:05:08.494Z,6.19
2019-02-17T22:08:10.411Z,6.14
2019-02-17T22:11:12.361Z,6.10
2019-02-17T22:14:14.317Z,6.07
2019-02-17T22:17:16.524Z,5.96
2019-02-17T22:20:18.557Z,5.80
2019-02-17T22:23:20.490Z,5.78
2019-02-17T22:26:22.440Z,5.77
2019-02-17T22:29:24.340Z,5.69
2019-02-17T22:32:26.613Z,5.56
2019-02-17T22:35:28.514Z,5.62
2019-02-17T22:38:30.427Z,5.55
2019-02-17T22:41:32.353Z,5.25
2019-02-17T22:44:34.223Z,5.15
2019-02-17T22:47:36.143Z,5.24
2019-02-17T22:50:38.123Z,5.30
2019-02-17T22:53:43.767Z,5.31
2019-02-17T22:56:44.003Z,5.43
2019-02-17T22:59:47.028Z,5.62
2019-02-17T23:02:48.992Z,5.77
2019-02-17T23:05:50.854Z,5.86
2019-02-17T23:08:52.814Z,5.81
2019-02-17T23:11:54.722Z,5.70
2019-02-17T23:14:56.630Z,5.63
2019-02-17T23:17:58.499Z,5.68
2019-02-17T23:21:00.413Z,5.60
2019-02-17T23:24:02.346Z,5.20
2019-02-17T23:27:04.341Z,4.73
2019-02-17T23:30:09.261Z,4.55
2019-02-17T23:33:11.209Z,4.55
2019-02-17T23:36:13.180Z,4.45
2019-02-17T23:39:15.128Z,4.56
2019-02-17T23:42:17.067Z,4.70
2019-02-17T23:45:19.026Z,4.83
2019-02-17T23:48:20.957Z,4.91
2019-02-17T23:51:22.943Z,5.02
2019-02-17T23:54:24.796Z,5.09
2019-02-17T23:57:26.703Z,5.11
